Terminal Aerodrome Forecast
Issued by NWS

Current Version | Previous Version | Text Only | Print | Product List | Glossary On
Versions: 1 2 3 4 5 6 7 8 9 10 11 12 13 14 15
000
FTUS42 TJSJ 252300 RRA
TAFNCM
TAF
TNCM 252339Z 2600/2624 08015KT P6SM VCSH FEW019 SCT035
     FM260400 08012KT P6SM VCSH SCT018 BKN035
     FM261400 10014G24KT P6SM FEW020 SCT050=

USA.gov is the U.S. government's official web portal to all federal, state and local government web resources and services.